UAE2081 OMDB-OTHH
Flight info
| Callsign | UAE2081 |
|---|---|
| Flight time | 0h 43m |
| Altitude | 22000 |
| Route | NABIX P699 OXARI M430 TOSNA |
| Aircraft | B77W/H-SDE1E2E3FGHIJ2J3J4J5M1RWXY/LB1D1 |
Departure
| Time | 2026-05-06 02:09 |
|---|---|
| Airport | Dubai International Airport (OMDB) |
Arrival
| Time | 2026-05-06 02:52 |
|---|---|
| Airport | Hamad International Airport (OTHH) |
| Time | Latitude | Longitude | Altitude | Speed | Heading |
|---|---|---|---|---|---|
| 2026-05-06 01:44 | 25.24259 | 55.37518 | 30 ft | 0 kts | 211° |
| 2026-05-06 01:57 | 25.24266 | 55.37522 | 31 ft | 3 kts | 211° |
| 2026-05-06 01:57 | 25.24283 | 55.37534 | 31 ft | 3 kts | 211° |
| 2026-05-06 01:58 | 25.24300 | 55.37546 | 26 ft | 3 kts | 211° |
| 2026-05-06 01:58 | 25.24317 | 55.37557 | 31 ft | 3 kts | 200° |
| 2026-05-06 01:58 | 25.24335 | 55.37560 | 31 ft | 3 kts | 168° |
| 2026-05-06 01:58 | 25.24353 | 55.37553 | 31 ft | 3 kts | 139° |
| 2026-05-06 01:59 | 25.24363 | 55.37541 | 30 ft | 1 kts | 121° |
| 2026-05-06 01:59 | 25.24371 | 55.37527 | 31 ft | 3 kts | 121° |
| 2026-05-06 01:59 | 25.24381 | 55.37509 | 31 ft | 2 kts | 121° |
| 2026-05-06 01:59 | 25.24383 | 55.37504 | 31 ft | 8 kts | 121° |
| 2026-05-06 02:00 | 25.24384 | 55.37504 | 26 ft | 0 kts | 121° |
| 2026-05-06 02:03 | 25.24382 | 55.37506 | 26 ft | 3 kts | 121° |
| 2026-05-06 02:03 | 25.24348 | 55.37568 | 28 ft | 15 kts | 122° |
| 2026-05-06 02:04 | 25.24294 | 55.37665 | 29 ft | 12 kts | 121° |
| 2026-05-06 02:04 | 25.24263 | 55.37736 | 30 ft | 10 kts | 92° |
| 2026-05-06 02:04 | 25.24290 | 55.37805 | 26 ft | 11 kts | 70° |
| 2026-05-06 02:04 | 25.24276 | 55.37884 | 26 ft | 11 kts | 122° |
| 2026-05-06 02:05 | 25.24231 | 55.37961 | 27 ft | 13 kts | 123° |
| 2026-05-06 02:05 | 25.24205 | 55.38037 | 27 ft | 8 kts | 74° |
| 2026-05-06 02:05 | 25.24241 | 55.38078 | 28 ft | 8 kts | 33° |
| 2026-05-06 02:05 | 25.24287 | 55.38109 | 30 ft | 8 kts | 31° |
| 2026-05-06 02:06 | 25.24335 | 55.38142 | 31 ft | 10 kts | 31° |
| 2026-05-06 02:06 | 25.24409 | 55.38192 | 10 ft | 15 kts | 31° |
| 2026-05-06 02:06 | 25.24473 | 55.38235 | 28 ft | 3 kts | 31° |
| 2026-05-06 02:06 | 25.24494 | 55.38249 | 27 ft | 4 kts | 31° |
| 2026-05-06 02:07 | 25.24518 | 55.38265 | 27 ft | 4 kts | 31° |
| 2026-05-06 02:07 | 25.24571 | 55.38300 | 27 ft | 17 kts | 31° |
| 2026-05-06 02:07 | 25.24640 | 55.38315 | 27 ft | 10 kts | 327° |
| 2026-05-06 02:07 | 25.24688 | 55.38238 | 28 ft | 6 kts | 301° |
| 2026-05-06 02:08 | 25.24689 | 55.38236 | 28 ft | 0 kts | 301° |
| 2026-05-06 02:08 | 25.24700 | 55.38217 | 28 ft | 14 kts | 301° |
| 2026-05-06 02:08 | 25.24912 | 55.37834 | 31 ft | 119 kts | 301° |
| 2026-05-06 02:08 | 25.25549 | 55.36671 | 142 ft | 224 kts | 301° |
| 2026-05-06 02:09 | 25.26378 | 55.35110 | 1423 ft | 239 kts | 301° |
| 2026-05-06 02:09 | 25.27236 | 55.33551 | 2934 ft | 235 kts | 303° |
| 2026-05-06 02:09 | 25.28118 | 55.31999 | 3864 ft | 242 kts | 303° |
| 2026-05-06 02:09 | 25.28987 | 55.30405 | 4742 ft | 246 kts | 295° |
| 2026-05-06 02:10 | 25.29239 | 55.28574 | 5850 ft | 244 kts | 259° |
| 2026-05-06 02:10 | 25.28600 | 55.26859 | 6853 ft | 240 kts | 240° |
| 2026-05-06 02:10 | 25.27807 | 55.25228 | 7762 ft | 241 kts | 244° |
| 2026-05-06 02:10 | 25.27070 | 55.23591 | 8796 ft | 234 kts | 244° |
| 2026-05-06 02:11 | 25.26372 | 55.21974 | 9706 ft | 233 kts | 244° |
| 2026-05-06 02:11 | 25.25668 | 55.20325 | 10304 ft | 247 kts | 244° |
| 2026-05-06 02:11 | 25.24908 | 55.18537 | 10820 ft | 262 kts | 245° |
| 2026-05-06 02:11 | 25.24132 | 55.16677 | 11567 ft | 270 kts | 249° |
| 2026-05-06 02:12 | 25.23660 | 55.14637 | 12298 ft | 281 kts | 261° |
| 2026-05-06 02:12 | 25.23369 | 55.12391 | 12596 ft | 312 kts | 263° |
| 2026-05-06 02:12 | 25.23084 | 55.09895 | 12846 ft | 342 kts | 263° |
| 2026-05-06 02:12 | 25.22763 | 55.07208 | 13070 ft | 371 kts | 262° |
| 2026-05-06 02:13 | 25.22392 | 55.04290 | 13491 ft | 392 kts | 262° |
| 2026-05-06 02:13 | 25.21989 | 55.01273 | 14202 ft | 401 kts | 262° |
| 2026-05-06 02:13 | 25.21569 | 54.98209 | 15032 ft | 406 kts | 262° |
| 2026-05-06 02:13 | 25.21141 | 54.95105 | 15931 ft | 410 kts | 262° |
| 2026-05-06 02:14 | 25.20804 | 54.91971 | 16790 ft | 414 kts | 265° |
| 2026-05-06 02:14 | 25.20592 | 54.88774 | 17639 ft | 419 kts | 267° |
| 2026-05-06 02:14 | 25.20407 | 54.85540 | 18430 ft | 423 kts | 267° |
| 2026-05-06 02:14 | 25.20201 | 54.82287 | 19208 ft | 426 kts | 266° |
| 2026-05-06 02:15 | 25.19970 | 54.79016 | 20019 ft | 428 kts | 266° |
| 2026-05-06 02:15 | 25.19753 | 54.75723 | 20818 ft | 431 kts | 268° |
| 2026-05-06 02:15 | 25.19807 | 54.72399 | 21587 ft | 434 kts | 274° |
| 2026-05-06 02:15 | 25.20045 | 54.69110 | 22327 ft | 437 kts | 275° |
| 2026-05-06 02:16 | 25.20321 | 54.65748 | 23061 ft | 441 kts | 275° |
| 2026-05-06 02:16 | 25.20569 | 54.62365 | 23740 ft | 443 kts | 274° |
| 2026-05-06 02:16 | 25.20779 | 54.58956 | 24432 ft | 443 kts | 273° |
| 2026-05-06 02:16 | 25.20966 | 54.55562 | 25131 ft | 443 kts | 273° |
| 2026-05-06 02:17 | 25.21207 | 54.52164 | 25719 ft | 444 kts | 277° |
| 2026-05-06 02:17 | 25.21882 | 54.48838 | 25783 ft | 445 kts | 285° |
| 2026-05-06 02:17 | 25.22804 | 54.45579 | 25801 ft | 443 kts | 287° |
| 2026-05-06 02:17 | 25.23725 | 54.42332 | 25797 ft | 443 kts | 286° |
| 2026-05-06 02:18 | 25.24602 | 54.39069 | 25798 ft | 443 kts | 285° |
| 2026-05-06 02:18 | 25.25425 | 54.35840 | 25802 ft | 442 kts | 284° |
| 2026-05-06 02:18 | 25.26242 | 54.32566 | 25794 ft | 442 kts | 284° |
| 2026-05-06 02:18 | 25.27054 | 54.29293 | 25806 ft | 442 kts | 284° |
| 2026-05-06 02:19 | 25.27866 | 54.26023 | 25793 ft | 441 kts | 284° |
| 2026-05-06 02:19 | 25.28679 | 54.22752 | 25793 ft | 441 kts | 284° |
| 2026-05-06 02:19 | 25.29492 | 54.19480 | 25803 ft | 441 kts | 284° |
| 2026-05-06 02:19 | 25.30305 | 54.16207 | 25799 ft | 441 kts | 284° |
| 2026-05-06 02:20 | 25.31867 | 54.09642 | 25793 ft | 441 kts | 282° |
| 2026-05-06 02:20 | 25.32562 | 54.06337 | 25802 ft | 441 kts | 282° |
| 2026-05-06 02:20 | 25.33243 | 54.03026 | 25796 ft | 441 kts | 282° |
| 2026-05-06 02:21 | 25.33928 | 53.99721 | 25795 ft | 441 kts | 282° |
| 2026-05-06 02:21 | 25.34622 | 53.96416 | 25794 ft | 441 kts | 282° |
| 2026-05-06 02:21 | 25.35322 | 53.93109 | 25803 ft | 442 kts | 282° |
| 2026-05-06 02:21 | 25.36024 | 53.89805 | 25804 ft | 442 kts | 282° |
| 2026-05-06 02:22 | 25.36726 | 53.86498 | 25799 ft | 441 kts | 282° |
| 2026-05-06 02:22 | 25.37415 | 53.83238 | 25804 ft | 441 kts | 282° |
| 2026-05-06 02:22 | 25.38109 | 53.79915 | 25795 ft | 441 kts | 282° |
| 2026-05-06 02:22 | 25.38797 | 53.76610 | 25795 ft | 440 kts | 282° |
| 2026-05-06 02:23 | 25.39484 | 53.73306 | 25797 ft | 440 kts | 282° |
| 2026-05-06 02:23 | 25.40170 | 53.70006 | 25791 ft | 440 kts | 282° |
| 2026-05-06 02:23 | 25.40858 | 53.66701 | 25797 ft | 440 kts | 282° |
| 2026-05-06 02:23 | 25.41536 | 53.63406 | 25797 ft | 439 kts | 280° |
| 2026-05-06 02:24 | 25.41944 | 53.60100 | 25801 ft | 438 kts | 272° |
| 2026-05-06 02:24 | 25.41958 | 53.56691 | 25802 ft | 438 kts | 267° |
| 2026-05-06 02:24 | 25.41682 | 53.53385 | 25798 ft | 438 kts | 261° |
| 2026-05-06 02:24 | 25.41054 | 53.50052 | 25816 ft | 437 kts | 257° |
| 2026-05-06 02:25 | 25.40375 | 53.46811 | 25804 ft | 438 kts | 257° |
| 2026-05-06 02:25 | 25.39693 | 53.43518 | 25795 ft | 438 kts | 257° |
| 2026-05-06 02:25 | 25.39030 | 53.40218 | 25797 ft | 438 kts | 258° |
| 2026-05-06 02:25 | 25.38379 | 53.36922 | 25803 ft | 438 kts | 258° |
| 2026-05-06 02:26 | 25.37772 | 53.33620 | 25803 ft | 439 kts | 259° |
| 2026-05-06 02:26 | 25.37228 | 53.30301 | 25801 ft | 439 kts | 260° |
| 2026-05-06 02:26 | 25.36701 | 53.26980 | 25803 ft | 439 kts | 260° |
| 2026-05-06 02:26 | 25.36174 | 53.23695 | 25804 ft | 439 kts | 259° |
| 2026-05-06 02:27 | 25.35631 | 53.20379 | 25798 ft | 439 kts | 259° |
| 2026-05-06 02:27 | 25.35079 | 53.17061 | 25805 ft | 439 kts | 259° |
| 2026-05-06 02:27 | 25.34526 | 53.13746 | 25807 ft | 439 kts | 259° |
| 2026-05-06 02:27 | 25.33980 | 53.10420 | 25798 ft | 439 kts | 259° |
| 2026-05-06 02:28 | 25.33437 | 53.07094 | 25803 ft | 439 kts | 259° |
| 2026-05-06 02:28 | 25.32895 | 53.03778 | 25803 ft | 439 kts | 259° |
| 2026-05-06 02:28 | 25.32351 | 53.00455 | 25797 ft | 439 kts | 259° |
| 2026-05-06 02:28 | 25.31805 | 52.97141 | 25804 ft | 438 kts | 259° |
| 2026-05-06 02:29 | 25.31254 | 52.93826 | 25793 ft | 438 kts | 259° |
| 2026-05-06 02:29 | 25.30694 | 52.90514 | 25792 ft | 438 kts | 259° |
| 2026-05-06 02:29 | 25.30131 | 52.87207 | 25793 ft | 438 kts | 259° |
| 2026-05-06 02:29 | 25.29569 | 52.83901 | 25799 ft | 438 kts | 259° |
| 2026-05-06 02:30 | 25.29014 | 52.80639 | 25798 ft | 437 kts | 259° |
| 2026-05-06 02:30 | 25.28453 | 52.77334 | 25800 ft | 437 kts | 259° |
| 2026-05-06 02:30 | 25.27892 | 52.74034 | 25810 ft | 437 kts | 259° |
| 2026-05-06 02:30 | 25.27322 | 52.70736 | 25802 ft | 437 kts | 257° |
| 2026-05-06 02:31 | 25.26358 | 52.67564 | 25783 ft | 437 kts | 243° |
| 2026-05-06 02:31 | 25.24677 | 52.64770 | 25696 ft | 438 kts | 235° |
| 2026-05-06 02:31 | 25.22886 | 52.62011 | 25176 ft | 443 kts | 236° |
| 2026-05-06 02:31 | 25.21720 | 52.60166 | 24802 ft | 441 kts | 236° |
| 2026-05-06 02:32 | 25.19986 | 52.57375 | 24187 ft | 438 kts | 237° |
| 2026-05-06 02:32 | 25.18280 | 52.54596 | 23560 ft | 436 kts | 237° |
| 2026-05-06 02:32 | 25.16585 | 52.51827 | 22845 ft | 435 kts | 237° |
| 2026-05-06 02:32 | 25.14895 | 52.49071 | 22159 ft | 431 kts | 237° |
| 2026-05-06 02:33 | 25.13215 | 52.46337 | 21531 ft | 428 kts | 236° |
| 2026-05-06 02:33 | 25.12069 | 52.44573 | 21101 ft | 426 kts | 232° |
| 2026-05-06 02:34 | 25.05018 | 52.37268 | 19160 ft | 413 kts | 245° |
| 2026-05-06 02:34 | 25.04093 | 52.34342 | 18681 ft | 408 kts | 258° |
| 2026-05-06 02:34 | 25.03840 | 52.31246 | 18147 ft | 404 kts | 271° |
| 2026-05-06 02:34 | 25.03958 | 52.28159 | 17543 ft | 402 kts | 274° |
| 2026-05-06 02:35 | 25.04110 | 52.25078 | 16977 ft | 399 kts | 274° |
| 2026-05-06 02:35 | 25.04256 | 52.22032 | 16447 ft | 396 kts | 274° |
| 2026-05-06 02:35 | 25.04384 | 52.19013 | 15925 ft | 393 kts | 274° |
| 2026-05-06 02:35 | 25.04808 | 52.16066 | 15362 ft | 388 kts | 290° |
| 2026-05-06 02:36 | 25.06118 | 52.13502 | 14849 ft | 382 kts | 311° |
| 2026-05-06 02:36 | 25.08030 | 52.11509 | 14393 ft | 376 kts | 322° |
| 2026-05-06 02:36 | 25.10076 | 52.09743 | 13941 ft | 372 kts | 323° |
| 2026-05-06 02:36 | 25.12091 | 52.07993 | 13717 ft | 362 kts | 323° |
| 2026-05-06 02:37 | 25.14001 | 52.06327 | 13642 ft | 348 kts | 322° |
| 2026-05-06 02:37 | 25.15861 | 52.04698 | 13556 ft | 335 kts | 322° |
| 2026-05-06 02:37 | 25.17656 | 52.03123 | 13462 ft | 322 kts | 322° |
| 2026-05-06 02:37 | 25.19377 | 52.01607 | 13377 ft | 310 kts | 322° |
| 2026-05-06 02:38 | 25.21039 | 52.00141 | 13217 ft | 302 kts | 322° |
| 2026-05-06 02:38 | 25.22655 | 51.98715 | 13036 ft | 293 kts | 322° |
| 2026-05-06 02:38 | 25.24233 | 51.97321 | 12814 ft | 287 kts | 322° |
| 2026-05-06 02:38 | 25.25783 | 51.95950 | 12561 ft | 283 kts | 322° |
| 2026-05-06 02:39 | 25.27313 | 51.94596 | 12278 ft | 281 kts | 322° |
| 2026-05-06 02:39 | 25.28840 | 51.93246 | 11958 ft | 282 kts | 322° |
| 2026-05-06 02:39 | 25.30375 | 51.91887 | 11594 ft | 283 kts | 322° |
| 2026-05-06 02:39 | 25.31912 | 51.90525 | 11246 ft | 284 kts | 322° |
| 2026-05-06 02:40 | 25.33458 | 51.89156 | 10891 ft | 284 kts | 322° |
| 2026-05-06 02:40 | 25.34920 | 51.87698 | 10520 ft | 284 kts | 308° |
| 2026-05-06 02:40 | 25.35737 | 51.85751 | 10169 ft | 286 kts | 282° |
| 2026-05-06 02:40 | 25.35778 | 51.83553 | 9841 ft | 288 kts | 262° |
| 2026-05-06 02:41 | 25.35164 | 51.81433 | 9493 ft | 289 kts | 251° |
| 2026-05-06 02:41 | 25.34420 | 51.79367 | 9117 ft | 289 kts | 250° |
| 2026-05-06 02:41 | 25.33691 | 51.77299 | 8751 ft | 288 kts | 251° |
| 2026-05-06 02:41 | 25.32971 | 51.75231 | 8395 ft | 288 kts | 251° |
| 2026-05-06 02:42 | 25.32124 | 51.73227 | 8002 ft | 288 kts | 243° |
| 2026-05-06 02:42 | 25.31466 | 51.71167 | 7637 ft | 284 kts | 266° |
| 2026-05-06 02:42 | 25.31687 | 51.69068 | 7291 ft | 278 kts | 293° |
| 2026-05-06 02:42 | 25.32744 | 51.67319 | 6945 ft | 274 kts | 320° |
| 2026-05-06 02:43 | 25.34334 | 51.66197 | 6615 ft | 271 kts | 335° |
| 2026-05-06 02:43 | 25.36061 | 51.65368 | 6275 ft | 271 kts | 339° |
| 2026-05-06 02:43 | 25.37811 | 51.64599 | 5933 ft | 271 kts | 339° |
| 2026-05-06 02:43 | 25.39566 | 51.63833 | 5585 ft | 271 kts | 339° |
| 2026-05-06 02:44 | 25.41324 | 51.63064 | 5233 ft | 272 kts | 340° |
| 2026-05-06 02:44 | 25.43083 | 51.62290 | 4879 ft | 272 kts | 340° |
| 2026-05-06 02:44 | 25.44823 | 51.61520 | 4510 ft | 261 kts | 340° |
| 2026-05-06 02:44 | 25.46447 | 51.60795 | 4094 ft | 246 kts | 340° |
| 2026-05-06 02:45 | 25.48039 | 51.60080 | 3777 ft | 247 kts | 340° |
| 2026-05-06 02:45 | 25.49637 | 51.59357 | 3430 ft | 249 kts | 340° |
| 2026-05-06 02:45 | 25.51220 | 51.58580 | 3151 ft | 248 kts | 330° |
| 2026-05-06 02:45 | 25.52339 | 51.57154 | 2787 ft | 251 kts | 291° |
| 2026-05-06 02:46 | 25.52443 | 51.55262 | 2433 ft | 249 kts | 252° |
| 2026-05-06 02:46 | 25.51530 | 51.53710 | 2267 ft | 235 kts | 220° |
| 2026-05-06 02:46 | 25.50272 | 51.52655 | 2304 ft | 224 kts | 211° |
| 2026-05-06 02:46 | 25.48876 | 51.51905 | 2293 ft | 225 kts | 193° |
| 2026-05-06 02:47 | 25.47358 | 51.51624 | 2272 ft | 218 kts | 185° |
| 2026-05-06 02:47 | 25.45862 | 51.51567 | 2217 ft | 213 kts | 166° |
| 2026-05-06 02:47 | 25.44488 | 51.52148 | 2216 ft | 210 kts | 154° |
| 2026-05-06 02:47 | 25.43177 | 51.52743 | 2173 ft | 196 kts | 156° |
| 2026-05-06 02:48 | 25.41960 | 51.53279 | 2141 ft | 182 kts | 155° |
| 2026-05-06 02:48 | 25.40827 | 51.53781 | 2123 ft | 172 kts | 155° |
| 2026-05-06 02:48 | 25.39747 | 51.54259 | 2148 ft | 164 kts | 155° |
| 2026-05-06 02:48 | 25.38669 | 51.54738 | 1903 ft | 165 kts | 155° |
| 2026-05-06 02:49 | 25.37637 | 51.55194 | 1696 ft | 154 kts | 155° |
| 2026-05-06 02:49 | 25.36664 | 51.55625 | 1515 ft | 148 kts | 155° |
| 2026-05-06 02:49 | 25.35708 | 51.56049 | 1337 ft | 149 kts | 155° |
| 2026-05-06 02:49 | 25.34743 | 51.56475 | 1155 ft | 148 kts | 156° |
| 2026-05-06 02:50 | 25.33787 | 51.56898 | 961 ft | 147 kts | 156° |
| 2026-05-06 02:50 | 25.32848 | 51.57312 | 794 ft | 148 kts | 157° |
| 2026-05-06 02:50 | 25.31892 | 51.57736 | 619 ft | 148 kts | 157° |
| 2026-05-06 02:50 | 25.30940 | 51.58157 | 450 ft | 147 kts | 158° |
| 2026-05-06 02:51 | 25.29990 | 51.58590 | 243 ft | 149 kts | 158° |
| 2026-05-06 02:51 | 25.29026 | 51.59019 | 59 ft | 150 kts | 159° |
| 2026-05-06 02:51 | 25.28050 | 51.59445 | 26 ft | 152 kts | 158° |
| 2026-05-06 02:51 | 25.27194 | 51.59822 | 25 ft | 110 kts | 159° |
| 2026-05-06 02:52 | 25.26598 | 51.60084 | 22 ft | 77 kts | 158° |
| 2026-05-06 02:52 | 25.26215 | 51.60255 | 26 ft | 30 kts | 158° |
| 2026-05-06 02:52 | 25.26026 | 51.60338 | 27 ft | 31 kts | 158° |
| 2026-05-06 02:52 | 25.25821 | 51.60428 | 25 ft | 31 kts | 158° |
| 2026-05-06 02:53 | 25.25696 | 51.60541 | 23 ft | 15 kts | 109° |
| 2026-05-06 02:53 | 25.25709 | 51.60652 | 30 ft | 16 kts | 69° |
| 2026-05-06 02:53 | 25.25751 | 51.60768 | 29 ft | 18 kts | 69° |
| 2026-05-06 02:53 | 25.25788 | 51.60867 | 27 ft | 9 kts | 57° |
| 2026-05-06 02:54 | 25.25842 | 51.60887 | 27 ft | 10 kts | 18° |
| 2026-05-06 02:54 | 25.25891 | 51.60915 | 27 ft | 6 kts | 31° |
| 2026-05-06 02:54 | 25.25903 | 51.60923 | 27 ft | 2 kts | 32° |
| 2026-05-06 02:54 | 25.25912 | 51.60929 | 27 ft | 0 kts | 32° |
| 2026-05-06 03:06 | 25.29132 | 51.58972 | 85 ft | 150 kts | 159° |
| 2026-05-06 03:06 | 25.28157 | 51.59398 | 27 ft | 151 kts | 159° |
| 2026-05-06 03:06 | 25.28335 | 51.59321 | 28 ft | 151 kts | 159° |
| 2026-05-06 03:06 | 25.28358 | 51.59311 | 29 ft | 151 kts | 159° |
| 2026-05-06 03:07 | 25.29692 | 51.58724 | 180 ft | 149 kts | 159° |
| 2026-05-06 03:07 | 25.28687 | 51.59166 | 31 ft | 151 kts | 159° |
| 2026-05-06 03:07 | 25.27690 | 51.59605 | 19 ft | 138 kts | 158° |